sensor_id;sensor_type;location;lat;lon;timestamp;P1;durP1;ratioP1;P2;durP2;ratioP2
11171;SDS011;5642;50.830;12.082;2023-03-14T00:00:22;1.45;;;0.40;;
11171;SDS011;5642;50.830;12.082;2023-03-14T00:02:54;0.47;;;0.47;;
11171;SDS011;5642;50.830;12.082;2023-03-14T00:05:20;0.40;;;0.40;;
11171;SDS011;5642;50.830;12.082;2023-03-14T00:07:47;0.30;;;0.30;;
11171;SDS011;5642;50.830;12.082;2023-03-14T00:10:13;0.38;;;0.38;;
11171;SDS011;5642;50.830;12.082;2023-03-14T00:12:41;0.30;;;0.30;;
11171;SDS011;5642;50.830;12.082;2023-03-14T00:15:08;0.40;;;0.40;;
11171;SDS011;5642;50.830;12.082;2023-03-14T00:17:35;0.40;;;0.40;;
11171;SDS011;5642;50.830;12.082;2023-03-14T00:20:02;0.40;;;0.40;;
11171;SDS011;5642;50.830;12.082;2023-03-14T01:23:56;0.30;;;0.30;;
11171;SDS011;5642;50.830;12.082;2023-03-14T01:26:28;0.28;;;0.28;;
11171;SDS011;5642;50.830;12.082;2023-03-14T01:28:56;0.30;;;0.30;;
11171;SDS011;5642;50.830;12.082;2023-03-14T05:30:25;0.70;;;0.50;;
11171;SDS011;5642;50.830;12.082;2023-03-14T05:32:53;0.73;;;0.40;;
11171;SDS011;5642;50.830;12.082;2023-03-14T05:35:19;0.40;;;0.40;;
11171;SDS011;5642;50.830;12.082;2023-03-14T05:37:45;0.40;;;0.40;;
11171;SDS011;5642;50.830;12.082;2023-03-14T05:40:11;0.85;;;0.50;;
11171;SDS011;5642;50.830;12.082;2023-03-14T05:42:38;0.95;;;0.50;;
11171;SDS011;5642;50.830;12.082;2023-03-14T05:45:07;1.05;;;0.60;;
11171;SDS011;5642;50.830;12.082;2023-03-14T05:47:33;0.82;;;0.38;;
11171;SDS011;5642;50.830;12.082;2023-03-14T05:50:00;0.50;;;0.40;;
11171;SDS011;5642;50.830;12.082;2023-03-14T05:52:26;0.50;;;0.50;;
11171;SDS011;5642;50.830;12.082;2023-03-14T05:54:52;0.47;;;0.30;;
11171;SDS011;5642;50.830;12.082;2023-03-14T05:57:18;0.93;;;0.40;;
11171;SDS011;5642;50.830;12.082;2023-03-14T05:59:44;0.40;;;0.40;;
11171;SDS011;5642;50.830;12.082;2023-03-14T06:02:10;0.20;;;0.20;;
11171;SDS011;5642;50.830;12.082;2023-03-14T06:04:37;0.40;;;0.40;;
11171;SDS011;5642;50.830;12.082;2023-03-14T06:07:03;1.88;;;0.60;;
11171;SDS011;5642;50.830;12.082;2023-03-14T06:09:29;0.45;;;0.30;;
11171;SDS011;5642;50.830;12.082;2023-03-14T06:11:56;1.65;;;0.50;;
11171;SDS011;5642;50.830;12.082;2023-03-14T06:14:22;0.52;;;0.40;;
11171;SDS011;5642;50.830;12.082;2023-03-14T06:16:48;0.70;;;0.47;;
11171;SDS011;5642;50.830;12.082;2023-03-14T06:19:17;0.40;;;0.40;;
11171;SDS011;5642;50.830;12.082;2023-03-14T06:21:43;0.40;;;0.40;;
11171;SDS011;5642;50.830;12.082;2023-03-14T06:24:09;0.75;;;0.50;;
11171;SDS011;5642;50.830;12.082;2023-03-14T06:26:36;0.40;;;0.40;;
11171;SDS011;5642;50.830;12.082;2023-03-14T06:29:03;0.52;;;0.43;;
11171;SDS011;5642;50.830;12.082;2023-03-14T06:31:30;0.70;;;0.30;;
11171;SDS011;5642;50.830;12.082;2023-03-14T06:33:57;0.45;;;0.45;;
11171;SDS011;5642;50.830;12.082;2023-03-14T06:36:24;0.45;;;0.40;;
11171;SDS011;5642;50.830;12.082;2023-03-14T06:38:50;0.30;;;0.30;;
11171;SDS011;5642;50.830;12.082;2023-03-14T06:41:18;0.60;;;0.40;;
11171;SDS011;5642;50.830;12.082;2023-03-14T06:43:44;0.88;;;0.30;;
11171;SDS011;5642;50.830;12.082;2023-03-14T06:46:11;0.88;;;0.40;;
11171;SDS011;5642;50.830;12.082;2023-03-14T06:48:38;0.40;;;0.40;;
11171;SDS011;5642;50.830;12.082;2023-03-14T06:51:04;0.35;;;0.32;;
11171;SDS011;5642;50.830;12.082;2023-03-14T06:53:31;0.85;;;0.50;;
11171;SDS011;5642;50.830;12.082;2023-03-14T06:55:58;0.40;;;0.40;;
11171;SDS011;5642;50.830;12.082;2023-03-14T06:58:24;0.40;;;0.40;;
11171;SDS011;5642;50.830;12.082;2023-03-14T07:00:53;0.40;;;0.40;;
11171;SDS011;5642;50.830;12.082;2023-03-14T07:03:20;0.65;;;0.30;;
11171;SDS011;5642;50.830;12.082;2023-03-14T07:05:47;0.28;;;0.28;;
11171;SDS011;5642;50.830;12.082;2023-03-14T07:08:16;0.30;;;0.30;;
11171;SDS011;5642;50.830;12.082;2023-03-14T07:10:43;0.52;;;0.45;;
11171;SDS011;5642;50.830;12.082;2023-03-14T07:13:10;0.38;;;0.30;;
11171;SDS011;5642;50.830;12.082;2023-03-14T07:15:36;0.28;;;0.28;;
11171;SDS011;5642;50.830;12.082;2023-03-14T07:18:02;0.38;;;0.38;;
11171;SDS011;5642;50.830;12.082;2023-03-14T07:20:29;0.50;;;0.40;;
11171;SDS011;5642;50.830;12.082;2023-03-14T07:22:58;0.50;;;0.40;;
11171;SDS011;5642;50.830;12.082;2023-03-14T07:25:25;0.40;;;0.40;;
11171;SDS011;5642;50.830;12.082;2023-03-14T07:27:58;0.40;;;0.40;;
11171;SDS011;5642;50.830;12.082;2023-03-14T07:30:26;0.40;;;0.40;;
11171;SDS011;5642;50.830;12.082;2023-03-14T07:32:57;0.65;;;0.30;;
11171;SDS011;5642;50.830;12.082;2023-03-14T07:35:25;0.30;;;0.30;;
11171;SDS011;5642;50.830;12.082;2023-03-14T07:37:51;0.50;;;0.50;;
11171;SDS011;5642;50.830;12.082;2023-03-14T07:40:19;0.40;;;0.40;;
11171;SDS011;5642;50.830;12.082;2023-03-14T07:42:46;0.50;;;0.40;;
11171;SDS011;5642;50.830;12.082;2023-03-14T07:45:14;0.75;;;0.40;;
11171;SDS011;5642;50.830;12.082;2023-03-14T07:47:44;0.40;;;0.30;;
11171;SDS011;5642;50.830;12.082;2023-03-14T07:50:10;0.55;;;0.55;;
11171;SDS011;5642;50.830;12.082;2023-03-14T07:52:37;0.75;;;0.50;;
11171;SDS011;5642;50.830;12.082;2023-03-14T07:55:05;0.60;;;0.60;;
11171;SDS011;5642;50.830;12.082;2023-03-14T07:57:35;0.43;;;0.40;;
11171;SDS011;5642;50.830;12.082;2023-03-14T08:00:04;0.95;;;0.40;;
11171;SDS011;5642;50.830;12.082;2023-03-14T08:02:31;0.38;;;0.38;;
11171;SDS011;5642;50.830;12.082;2023-03-14T08:04:57;0.60;;;0.50;;
11171;SDS011;5642;50.830;12.082;2023-03-14T08:07:27;0.50;;;0.40;;
11171;SDS011;5642;50.830;12.082;2023-03-14T08:09:54;0.50;;;0.50;;
11171;SDS011;5642;50.830;12.082;2023-03-14T08:12:20;0.43;;;0.43;;
11171;SDS011;5642;50.830;12.082;2023-03-14T08:14:46;0.30;;;0.30;;
11171;SDS011;5642;50.830;12.082;2023-03-14T08:17:13;0.47;;;0.45;;
11171;SDS011;5642;50.830;12.082;2023-03-14T08:19:43;0.43;;;0.43;;
11171;SDS011;5642;50.830;12.082;2023-03-14T08:22:11;0.68;;;0.50;;
11171;SDS011;5642;50.830;12.082;2023-03-14T08:24:38;0.40;;;0.40;;
11171;SDS011;5642;50.830;12.082;2023-03-14T08:27:05;1.02;;;0.50;;
11171;SDS011;5642;50.830;12.082;2023-03-14T08:29:32;0.98;;;0.30;;
11171;SDS011;5642;50.830;12.082;2023-03-14T09:31:14;0.80;;;0.50;;
11171;SDS011;5642;50.830;12.082;2023-03-14T09:33:42;0.85;;;0.60;;
11171;SDS011;5642;50.830;12.082;2023-03-14T09:36:17;0.40;;;0.40;;
11171;SDS011;5642;50.830;12.082;2023-03-14T09:38:47;1.13;;;0.35;;
11171;SDS011;5642;50.830;12.082;2023-03-14T09:41:24;0.50;;;0.50;;
11171;SDS011;5642;50.830;12.082;2023-03-14T09:43:55;0.60;;;0.55;;
11171;SDS011;5642;50.830;12.082;2023-03-14T09:46:31;0.52;;;0.52;;
11171;SDS011;5642;50.830;12.082;2023-03-14T09:49:01;2.63;;;0.60;;
11171;SDS011;5642;50.830;12.082;2023-03-14T09:51:39;0.47;;;0.22;;
11171;SDS011;5642;50.830;12.082;2023-03-14T09:54:16;0.20;;;0.20;;
11171;SDS011;5642;50.830;12.082;2023-03-14T09:57:00;0.20;;;0.20;;
11171;SDS011;5642;50.830;12.082;2023-03-14T09:59:28;0.40;;;0.40;;
11171;SDS011;5642;50.830;12.082;2023-03-14T10:02:01;0.50;;;0.50;;
11171;SDS011;5642;50.830;12.082;2023-03-14T10:04:37;0.30;;;0.30;;
11171;SDS011;5642;50.830;12.082;2023-03-14T10:07:18;0.40;;;0.30;;
11171;SDS011;5642;50.830;12.082;2023-03-14T10:09:51;0.40;;;0.40;;
11171;SDS011;5642;50.830;12.082;2023-03-14T10:12:30;0.50;;;0.50;;
11171;SDS011;5642;50.830;12.082;2023-03-14T10:15:04;0.38;;;0.30;;
11171;SDS011;5642;50.830;12.082;2023-03-14T10:17:39;0.28;;;0.28;;
11171;SDS011;5642;50.830;12.082;2023-03-14T10:23:02;0.55;;;0.40;;
11171;SDS011;5642;50.830;12.082;2023-03-14T10:28:55;0.38;;;0.38;;
11171;SDS011;5642;50.830;12.082;2023-03-14T10:34:34;0.30;;;0.30;;
11171;SDS011;5642;50.830;12.082;2023-03-14T10:37:25;0.47;;;0.28;;
11171;SDS011;5642;50.830;12.082;2023-03-14T10:40:14;0.35;;;0.30;;
11171;SDS011;5642;50.830;12.082;2023-03-14T10:42:46;0.22;;;0.22;;
11171;SDS011;5642;50.830;12.082;2023-03-14T10:45:41;0.20;;;0.20;;
11171;SDS011;5642;50.830;12.082;2023-03-14T10:51:10;0.30;;;0.30;;
11171;SDS011;5642;50.830;12.082;2023-03-14T10:54:20;0.30;;;0.20;;
11171;SDS011;5642;50.830;12.082;2023-03-14T10:57:40;0.20;;;0.20;;
11171;SDS011;5642;50.830;12.082;2023-03-14T11:00:14;0.22;;;0.22;;
11171;SDS011;5642;50.830;12.082;2023-03-14T11:05:57;0.80;;;0.80;;
11171;SDS011;5642;50.830;12.082;2023-03-14T11:08:53;0.80;;;0.75;;
11171;SDS011;5642;50.830;12.082;2023-03-14T11:11:31;0.88;;;0.88;;
11171;SDS011;5642;50.830;12.082;2023-03-14T11:30:37;0.40;;;0.40;;
11171;SDS011;5642;50.830;12.082;2023-03-14T11:36:21;0.40;;;0.40;;
11171;SDS011;5642;50.830;12.082;2023-03-14T11:39:13;0.50;;;0.30;;
11171;SDS011;5642;50.830;12.082;2023-03-14T11:41:54;0.20;;;0.20;;
11171;SDS011;5642;50.830;12.082;2023-03-14T11:44:34;0.32;;;0.32;;
11171;SDS011;5642;50.830;12.082;2023-03-14T11:47:21;0.20;;;0.20;;
11171;SDS011;5642;50.830;12.082;2023-03-14T11:50:23;0.50;;;0.35;;
11171;SDS011;5642;50.830;12.082;2023-03-14T11:53:16;0.25;;;0.25;;
11171;SDS011;5642;50.830;12.082;2023-03-14T11:55:48;0.22;;;0.22;;
11171;SDS011;5642;50.830;12.082;2023-03-14T11:58:27;0.20;;;0.20;;
11171;SDS011;5642;50.830;12.082;2023-03-14T12:01:11;0.30;;;0.30;;
11171;SDS011;5642;50.830;12.082;2023-03-14T12:03:43;0.20;;;0.20;;
11171;SDS011;5642;50.830;12.082;2023-03-14T12:09:20;0.30;;;0.30;;
11171;SDS011;5642;50.830;12.082;2023-03-14T12:11:50;0.40;;;0.38;;
11171;SDS011;5642;50.830;12.082;2023-03-14T12:14:26;0.30;;;0.30;;
11171;SDS011;5642;50.830;12.082;2023-03-14T12:19:45;0.45;;;0.45;;
11171;SDS011;5642;50.830;12.082;2023-03-14T12:22:24;0.20;;;0.20;;
11171;SDS011;5642;50.830;12.082;2023-03-14T12:24:55;0.52;;;0.30;;
11171;SDS011;5642;50.830;12.082;2023-03-14T12:27:40;0.40;;;0.40;;
11171;SDS011;5642;50.830;12.082;2023-03-14T12:30:26;0.30;;;0.30;;
11171;SDS011;5642;50.830;12.082;2023-03-14T12:36:04;0.20;;;0.20;;
11171;SDS011;5642;50.830;12.082;2023-03-14T12:38:45;0.40;;;0.40;;
11171;SDS011;5642;50.830;12.082;2023-03-14T12:47:05;0.47;;;0.30;;
11171;SDS011;5642;50.830;12.082;2023-03-14T12:49:50;0.20;;;0.20;;
11171;SDS011;5642;50.830;12.082;2023-03-14T12:52:30;0.40;;;0.40;;
11171;SDS011;5642;50.830;12.082;2023-03-14T12:55:04;0.40;;;0.40;;
11171;SDS011;5642;50.830;12.082;2023-03-14T12:58:08;0.70;;;0.60;;
11171;SDS011;5642;50.830;12.082;2023-03-14T13:00:51;0.50;;;0.50;;
11171;SDS011;5642;50.830;12.082;2023-03-14T13:03:26;0.40;;;0.40;;
11171;SDS011;5642;50.830;12.082;2023-03-14T13:06:03;0.55;;;0.40;;
11171;SDS011;5642;50.830;12.082;2023-03-14T13:08:40;0.35;;;0.35;;
11171;SDS011;5642;50.830;12.082;2023-03-14T13:11:15;0.50;;;0.50;;
11171;SDS011;5642;50.830;12.082;2023-03-14T13:13:46;0.38;;;0.38;;
11171;SDS011;5642;50.830;12.082;2023-03-14T13:16:17;0.47;;;0.47;;
11171;SDS011;5642;50.830;12.082;2023-03-14T13:18:49;0.50;;;0.50;;
11171;SDS011;5642;50.830;12.082;2023-03-14T13:21:33;0.52;;;0.52;;
11171;SDS011;5642;50.830;12.082;2023-03-14T13:24:21;0.60;;;0.60;;
11171;SDS011;5642;50.830;12.082;2023-03-14T13:26:55;0.40;;;0.40;;
11171;SDS011;5642;50.830;12.082;2023-03-14T13:29:28;0.35;;;0.32;;
11171;SDS011;5642;50.830;12.082;2023-03-14T15:34:44;0.73;;;0.28;;
11171;SDS011;5642;50.830;12.082;2023-03-14T15:37:11;0.30;;;0.30;;
11171;SDS011;5642;50.830;12.082;2023-03-14T15:39:40;0.20;;;0.20;;
11171;SDS011;5642;50.830;12.082;2023-03-14T15:42:07;0.22;;;0.22;;
11171;SDS011;5642;50.830;12.082;2023-03-14T15:44:34;0.20;;;0.20;;
11171;SDS011;5642;50.830;12.082;2023-03-14T15:50:59;0.22;;;0.20;;
11171;SDS011;5642;50.830;12.082;2023-03-14T17:35:06;1.42;;;0.50;;
11171;SDS011;5642;50.830;12.082;2023-03-14T17:37:32;1.35;;;0.60;;
11171;SDS011;5642;50.830;12.082;2023-03-14T17:39:59;0.50;;;0.50;;
11171;SDS011;5642;50.830;12.082;2023-03-14T17:42:26;0.88;;;0.40;;
11171;SDS011;5642;50.830;12.082;2023-03-14T17:44:54;0.40;;;0.40;;
11171;SDS011;5642;50.830;12.082;2023-03-14T17:47:20;1.23;;;0.50;;
11171;SDS011;5642;50.830;12.082;2023-03-14T17:49:47;0.52;;;0.52;;
11171;SDS011;5642;50.830;12.082;2023-03-14T17:52:13;1.00;;;0.90;;
11171;SDS011;5642;50.830;12.082;2023-03-14T17:54:39;1.23;;;0.85;;
11171;SDS011;5642;50.830;12.082;2023-03-14T17:57:05;0.70;;;0.70;;
11171;SDS011;5642;50.830;12.082;2023-03-14T17:59:31;1.17;;;0.90;;
11171;SDS011;5642;50.830;12.082;2023-03-14T18:01:58;0.90;;;0.60;;
11171;SDS011;5642;50.830;12.082;2023-03-14T18:04:25;0.60;;;0.60;;
11171;SDS011;5642;50.830;12.082;2023-03-14T18:06:52;0.82;;;0.70;;
11171;SDS011;5642;50.830;12.082;2023-03-14T18:09:18;0.80;;;0.80;;
11171;SDS011;5642;50.830;12.082;2023-03-14T18:11:44;0.52;;;0.50;;
11171;SDS011;5642;50.830;12.082;2023-03-14T18:14:11;0.88;;;0.60;;
11171;SDS011;5642;50.830;12.082;2023-03-14T18:16:40;0.70;;;0.65;;
11171;SDS011;5642;50.830;12.082;2023-03-14T18:19:20;0.93;;;0.60;;
11171;SDS011;5642;50.830;12.082;2023-03-14T18:21:46;1.40;;;0.70;;
11171;SDS011;5642;50.830;12.082;2023-03-14T18:24:13;0.80;;;0.80;;
11171;SDS011;5642;50.830;12.082;2023-03-14T18:26:39;1.02;;;0.80;;
11171;SDS011;5642;50.830;12.082;2023-03-14T18:29:05;1.02;;;0.80;;
11171;SDS011;5642;50.830;12.082;2023-03-14T18:31:31;1.10;;;0.70;;
11171;SDS011;5642;50.830;12.082;2023-03-14T18:33:59;0.68;;;0.68;;
11171;SDS011;5642;50.830;12.082;2023-03-14T18:36:26;1.30;;;0.90;;
11171;SDS011;5642;50.830;12.082;2023-03-14T18:38:53;1.20;;;0.70;;
11171;SDS011;5642;50.830;12.082;2023-03-14T18:41:22;0.80;;;0.80;;
11171;SDS011;5642;50.830;12.082;2023-03-14T18:43:49;0.90;;;0.80;;
11171;SDS011;5642;50.830;12.082;2023-03-14T18:46:19;1.52;;;0.88;;
11171;SDS011;5642;50.830;12.082;2023-03-14T18:48:48;1.58;;;0.95;;
11171;SDS011;5642;50.830;12.082;2023-03-14T18:51:21;1.67;;;1.00;;
11171;SDS011;5642;50.830;12.082;2023-03-14T18:53:49;0.90;;;0.90;;
11171;SDS011;5642;50.830;12.082;2023-03-14T18:56:16;2.13;;;0.98;;
11171;SDS011;5642;50.830;12.082;2023-03-14T18:58:43;1.42;;;1.00;;
11171;SDS011;5642;50.830;12.082;2023-03-14T19:01:10;2.30;;;1.02;;
11171;SDS011;5642;50.830;12.082;2023-03-14T19:03:37;1.60;;;0.80;;
11171;SDS011;5642;50.830;12.082;2023-03-14T19:06:04;0.80;;;0.70;;
11171;SDS011;5642;50.830;12.082;2023-03-14T19:08:34;1.17;;;0.90;;
11171;SDS011;5642;50.830;12.082;2023-03-14T19:11:05;1.95;;;0.88;;
11171;SDS011;5642;50.830;12.082;2023-03-14T19:13:33;1.30;;;0.80;;
11171;SDS011;5642;50.830;12.082;2023-03-14T19:16:00;1.77;;;0.90;;
11171;SDS011;5642;50.830;12.082;2023-03-14T19:18:27;1.00;;;0.90;;
11171;SDS011;5642;50.830;12.082;2023-03-14T19:23:24;1.10;;;0.75;;
11171;SDS011;5642;50.830;12.082;2023-03-14T19:25:51;1.65;;;1.00;;
11171;SDS011;5642;50.830;12.082;2023-03-14T19:28:22;1.38;;;0.68;;
11171;SDS011;5642;50.830;12.082;2023-03-14T19:30:48;2.10;;;1.00;;
11171;SDS011;5642;50.830;12.082;2023-03-14T19:33:15;1.13;;;0.75;;
11171;SDS011;5642;50.830;12.082;2023-03-14T19:35:42;1.77;;;0.75;;
11171;SDS011;5642;50.830;12.082;2023-03-14T19:38:10;0.85;;;0.85;;
11171;SDS011;5642;50.830;12.082;2023-03-14T19:40:37;1.23;;;0.80;;
11171;SDS011;5642;50.830;12.082;2023-03-14T19:43:04;1.13;;;0.82;;
11171;SDS011;5642;50.830;12.082;2023-03-14T19:45:31;2.35;;;0.85;;
11171;SDS011;5642;50.830;12.082;2023-03-14T19:47:58;2.28;;;1.00;;
11171;SDS011;5642;50.830;12.082;2023-03-14T19:50:25;3.13;;;0.80;;
11171;SDS011;5642;50.830;12.082;2023-03-14T19:52:52;1.65;;;0.90;;
11171;SDS011;5642;50.830;12.082;2023-03-14T19:55:19;2.42;;;0.70;;
11171;SDS011;5642;50.830;12.082;2023-03-14T19:57:46;2.00;;;0.80;;
11171;SDS011;5642;50.830;12.082;2023-03-14T20:00:13;1.60;;;0.90;;
11171;SDS011;5642;50.830;12.082;2023-03-14T20:02:45;2.25;;;1.13;;
11171;SDS011;5642;50.830;12.082;2023-03-14T20:05:12;2.28;;;1.10;;
11171;SDS011;5642;50.830;12.082;2023-03-14T20:07:39;2.40;;;1.00;;
11171;SDS011;5642;50.830;12.082;2023-03-14T20:10:06;2.05;;;1.20;;
11171;SDS011;5642;50.830;12.082;2023-03-14T20:12:33;1.50;;;1.00;;
11171;SDS011;5642;50.830;12.082;2023-03-14T20:15:00;2.22;;;1.15;;
11171;SDS011;5642;50.830;12.082;2023-03-14T20:17:27;2.40;;;0.90;;
11171;SDS011;5642;50.830;12.082;2023-03-14T20:19:54;3.25;;;1.17;;
11171;SDS011;5642;50.830;12.082;2023-03-14T20:22:20;2.63;;;1.00;;
11171;SDS011;5642;50.830;12.082;2023-03-14T20:24:47;1.00;;;0.80;;
11171;SDS011;5642;50.830;12.082;2023-03-14T20:27:13;2.97;;;1.20;;
11171;SDS011;5642;50.830;12.082;2023-03-14T20:29:40;1.80;;;0.90;;
11171;SDS011;5642;50.830;12.082;2023-03-14T20:32:06;1.98;;;1.00;;
11171;SDS011;5642;50.830;12.082;2023-03-14T22:34:35;0.40;;;0.40;;
11171;SDS011;5642;50.830;12.082;2023-03-14T22:37:01;1.10;;;0.73;;
11171;SDS011;5642;50.830;12.082;2023-03-14T22:39:29;1.58;;;0.80;;
11171;SDS011;5642;50.830;12.082;2023-03-14T22:41:55;1.60;;;0.73;;
11171;SDS011;5642;50.830;12.082;2023-03-14T22:44:21;0.70;;;0.68;;
11171;SDS011;5642;50.830;12.082;2023-03-14T22:46:48;4.78;;;1.02;;
11171;SDS011;5642;50.830;12.082;2023-03-14T22:49:15;1.42;;;0.70;;
11171;SDS011;5642;50.830;12.082;2023-03-14T22:51:41;0.75;;;0.60;;
11171;SDS011;5642;50.830;12.082;2023-03-14T22:54:08;0.80;;;0.80;;
11171;SDS011;5642;50.830;12.082;2023-03-14T22:56:34;0.75;;;0.70;;
11171;SDS011;5642;50.830;12.082;2023-03-14T22:59:01;1.10;;;0.70;;
11171;SDS011;5642;50.830;12.082;2023-03-14T23:01:28;1.30;;;0.70;;
11171;SDS011;5642;50.830;12.082;2023-03-14T23:03:54;1.25;;;0.80;;
11171;SDS011;5642;50.830;12.082;2023-03-14T23:06:20;1.48;;;0.70;;
11171;SDS011;5642;50.830;12.082;2023-03-14T23:08:46;2.00;;;0.82;;
11171;SDS011;5642;50.830;12.082;2023-03-14T23:11:12;0.82;;;0.75;;
11171;SDS011;5642;50.830;12.082;2023-03-14T23:13:39;0.93;;;0.70;;
11171;SDS011;5642;50.830;12.082;2023-03-14T23:16:07;1.08;;;0.70;;
11171;SDS011;5642;50.830;12.082;2023-03-14T23:18:38;2.38;;;1.10;;
11171;SDS011;5642;50.830;12.082;2023-03-14T23:21:07;1.00;;;0.85;;
11171;SDS011;5642;50.830;12.082;2023-03-14T23:23:35;1.42;;;0.93;;
11171;SDS011;5642;50.830;12.082;2023-03-14T23:26:03;1.30;;;0.80;;
11171;SDS011;5642;50.830;12.082;2023-03-14T23:28:31;1.30;;;0.80;;
11171;SDS011;5642;50.830;12.082;2023-03-14T23:30:57;1.40;;;0.95;;
11171;SDS011;5642;50.830;12.082;2023-03-14T23:33:24;0.88;;;0.77;;
11171;SDS011;5642;50.830;12.082;2023-03-14T23:35:52;1.05;;;0.80;;
11171;SDS011;5642;50.830;12.082;2023-03-14T23:38:23;1.35;;;0.82;;
11171;SDS011;5642;50.830;12.082;2023-03-14T23:40:52;1.15;;;0.88;;
11171;SDS011;5642;50.830;12.082;2023-03-14T23:43:18;2.33;;;1.00;;
11171;SDS011;5642;50.830;12.082;2023-03-14T23:45:49;2.00;;;0.85;;
11171;SDS011;5642;50.830;12.082;2023-03-14T23:48:20;1.33;;;0.90;;
11171;SDS011;5642;50.830;12.082;2023-03-14T23:50:57;1.35;;;0.90;;
11171;SDS011;5642;50.830;12.082;2023-03-14T23:53:25;1.90;;;1.00;;
11171;SDS011;5642;50.830;12.082;2023-03-14T23:55:53;1.05;;;0.70;;
11171;SDS011;5642;50.830;12.082;2023-03-14T23:58:20;1.92;;;0.90;;
